Time;durP1;ratioP1;P1;durP2;ratioP2;P2;SDS_P1;SDS_P2;PMS_P1;PMS_P2;Temp;Humidity;BMP_temperature;BMP_pressure;BME280_temperature;BME280_humidity;BME280_pressure;Samples;Min_cycle;Max_cycle;Signal;HPM_P1;HPM_P2
2022/04/15 00:02:05;;;;;;;;;;;22.60;42.40;;;;;;5072682;28;19965;-60
2022/04/15 00:04:31;;;;;;;;;;;22.60;42.40;;;;;;5082760;28;19919;-60
2022/04/15 00:06:57;;;;;;;;;;;22.50;42.90;;;;;;5076307;28;20011;-60
2022/04/15 00:09:22;;;;;;;;;;;22.60;42.40;;;;;;5081840;28;19915;-60
2022/04/15 00:11:48;;;;;;;;;;;22.60;42.30;;;;;;5076152;28;19912;-60
2022/04/15 00:14:13;;;;;;;;;;;22.50;42.20;;;;;;5082086;28;19920;-59
2022/04/15 00:16:43;;;;;;;;;;;22.50;42.30;;;;;;5075578;28;19963;-60
2022/04/15 00:19:09;;;;;;;;;;;22.50;42.30;;;;;;5076479;28;20306;-60
2022/04/15 00:21:35;;;;;;;;;;;22.50;42.30;;;;;;5071294;28;19916;-60
2022/04/15 00:24:00;;;;;;;;;;;22.50;42.40;;;;;;5071257;28;19959;-60
2022/04/15 00:26:26;;;;;;;;;;;22.50;42.40;;;;;;5064400;28;20334;-60
2022/04/15 00:28:52;;;;;;;;;;;22.50;42.40;;;;;;5072335;28;19935;-60
2022/04/15 00:31:18;;;;;;;;;;;22.50;42.40;;;;;;5086529;28;19913;-60
2022/04/15 00:33:43;;;;;;;;;;;22.50;42.40;;;;;;5070041;28;19920;-60
2022/04/15 00:36:09;;;;;;;;;;;22.40;42.40;;;;;;5072010;28;20632;-60
2022/04/15 00:38:34;;;;;;;;;;;22.40;42.40;;;;;;5071130;28;19983;-60
2022/04/15 00:41:00;;;;;;;;;;;22.40;42.50;;;;;;5072148;28;19920;-60
2022/04/15 00:43:25;;;;;;;;;;;22.40;42.60;;;;;;5074447;28;19920;-60
2022/04/15 00:45:51;;;;;;;;;;;22.40;42.70;;;;;;5076088;28;19916;-60
2022/04/15 00:48:19;;;;;;;;;;;22.30;42.50;;;;;;5075064;28;20372;-60
2022/04/15 00:50:45;;;;;;;;;;;22.30;42.50;;;;;;5073814;28;20314;-60
2022/04/15 00:53:11;;;;;;;;;;;22.30;42.40;;;;;;5074586;28;19920;-60
2022/04/15 00:55:36;;;;;;;;;;;22.20;42.20;;;;;;5073881;28;20384;-60
2022/04/15 00:58:03;;;;;;;;;;;22.20;42.10;;;;;;5071906;28;19917;-60
2022/04/15 01:00:33;;;;;;;;;;;22.20;42.10;;;;;;5075210;28;19918;-60
2022/04/15 01:02:59;;;;;;;;;;;22.20;42.20;;;;;;5076640;28;20375;-61
2022/04/15 01:05:24;;;;;;;;;;;22.20;42.20;;;;;;5060017;28;19919;-60
2022/04/15 01:07:50;;;;;;;;;;;22.20;42.30;;;;;;5074316;28;19920;-59
2022/04/15 01:10:16;;;;;;;;;;;22.20;42.20;;;;;;5072352;28;19928;-60
2022/04/15 01:12:43;;;;;;;;;;;22.20;42.20;;;;;;5064693;28;19914;-60
2022/04/15 01:15:09;;;;;;;;;;;22.20;42.10;;;;;;5076371;28;19957;-60
2022/04/15 01:17:35;;;;;;;;;;;22.20;42.00;;;;;;5081687;28;19917;-60
2022/04/15 01:20:01;;;;;;;;;;;22.10;41.90;;;;;;5090381;28;20302;-60
2022/04/15 01:22:33;;;;;;;;;;;22.20;41.90;;;;;;5085104;28;19956;-60
2022/04/15 01:24:58;;;;;;;;;;;22.20;41.80;;;;;;5070025;28;19924;-60
2022/04/15 01:27:33;;;;;;;;;;;22.10;41.80;;;;;;5076009;28;20376;-60
2022/04/15 01:29:59;;;;;;;;;;;22.10;41.90;;;;;;5083211;28;19920;-59
2022/04/15 01:32:24;;;;;;;;;;;22.10;41.90;;;;;;5078270;28;19916;-60
2022/04/15 01:34:50;;;;;;;;;;;22.10;41.90;;;;;;5076056;28;19955;-60
2022/04/15 01:37:16;;;;;;;;;;;22.10;41.90;;;;;;5084133;28;19917;-60
2022/04/15 01:39:41;;;;;;;;;;;22.10;41.90;;;;;;5086349;28;20280;-60
2022/04/15 01:42:10;;;;;;;;;;;22.10;41.90;;;;;;5076493;28;19916;-62
2022/04/15 01:44:36;;;;;;;;;;;22.20;41.80;;;;;;5077483;28;19920;-60
2022/04/15 01:47:01;;;;;;;;;;;22.20;41.50;;;;;;5074138;28;19913;-60
2022/04/15 01:49:26;;;;;;;;;;;22.20;41.30;;;;;;5074718;28;19921;-60
2022/04/15 01:51:52;;;;;;;;;;;22.20;41.30;;;;;;5076058;28;20349;-59
2022/04/15 01:54:17;;;;;;;;;;;22.30;41.80;;;;;;5080407;28;20093;-60
2022/04/15 01:56:43;;;;;;;;;;;22.30;41.00;;;;;;5086718;28;19919;-59
2022/04/15 01:59:09;;;;;;;;;;;22.40;41.00;;;;;;5076069;28;19920;-60
2022/04/15 02:01:35;;;;;;;;;;;22.30;40.90;;;;;;5076754;28;19912;-60
2022/04/15 02:04:00;;;;;;;;;;;22.30;40.90;;;;;;5076369;28;20402;-60
2022/04/15 02:06:26;;;;;;;;;;;22.30;40.80;;;;;;5076256;28;19923;-60
2022/04/15 02:08:51;;;;;;;;;;;22.20;40.70;;;;;;5074254;28;19913;-60
2022/04/15 02:11:17;;;;;;;;;;;22.30;40.70;;;;;;5073878;28;19956;-60
2022/04/15 02:13:42;;;;;;;;;;;22.20;40.70;;;;;;5089021;28;19957;-60
2022/04/15 02:16:08;;;;;;;;;;;22.20;40.70;;;;;;5077357;28;19920;-60
2022/04/15 02:18:34;;;;;;;;;;;22.20;40.70;;;;;;5073951;28;20015;-60
2022/04/15 02:20:59;;;;;;;;;;;22.20;40.70;;;;;;5074844;28;20003;-61
2022/04/15 02:23:25;;;;;;;;;;;22.20;40.60;;;;;;5083655;28;20458;-60
2022/04/15 02:25:50;;;;;;;;;;;22.20;40.50;;;;;;5072493;28;19999;-60
2022/04/15 02:28:16;;;;;;;;;;;22.20;40.40;;;;;;5072857;28;20353;-60
2022/04/15 02:30:41;;;;;;;;;;;22.30;40.50;;;;;;5075351;28;20011;-60
2022/04/15 02:33:07;;;;;;;;;;;22.30;40.40;;;;;;5071448;28;19916;-60
2022/04/15 02:35:32;;;;;;;;;;;22.30;40.50;;;;;;5061564;28;20356;-60
2022/04/15 02:37:58;;;;;;;;;;;22.20;40.40;;;;;;5082238;28;19912;-60
2022/04/15 02:40:24;;;;;;;;;;;22.20;40.60;;;;;;5071218;28;19986;-60
2022/04/15 02:42:49;;;;;;;;;;;22.20;40.60;;;;;;5071010;28;19961;-60
2022/04/15 02:45:14;;;;;;;;;;;22.10;40.60;;;;;;5068272;28;19913;-60
2022/04/15 02:47:41;;;;;;;;;;;22.10;40.70;;;;;;5077433;28;19955;-60
2022/04/15 02:50:06;;;;;;;;;;;22.10;40.70;;;;;;5073818;28;20003;-60
2022/04/15 02:52:32;;;;;;;;;;;22.10;40.70;;;;;;5086078;28;19994;-60
2022/04/15 02:54:58;;;;;;;;;;;22.00;40.60;;;;;;5074898;28;19915;-59
2022/04/15 02:57:23;;;;;;;;;;;22.00;40.60;;;;;;5071043;28;19924;-60
2022/04/15 02:59:48;;;;;;;;;;;22.00;40.60;;;;;;5084499;28;19919;-60
2022/04/15 03:02:15;;;;;;;;;;;22.00;40.80;;;;;;5074068;28;19919;-60
2022/04/15 03:04:40;;;;;;;;;;;21.90;40.80;;;;;;5076119;28;20299;-60
2022/04/15 03:07:06;;;;;;;;;;;21.80;40.90;;;;;;5081354;28;19916;-60
2022/04/15 03:09:31;;;;;;;;;;;21.80;40.90;;;;;;5076379;28;20371;-60
2022/04/15 03:11:56;;;;;;;;;;;21.80;40.80;;;;;;5073897;28;19912;-60
2022/04/15 03:14:22;;;;;;;;;;;21.80;40.70;;;;;;5071920;28;20070;-60
2022/04/15 03:16:47;;;;;;;;;;;21.80;40.70;;;;;;5072639;28;19916;-60
2022/04/15 03:19:13;;;;;;;;;;;21.80;40.70;;;;;;5075637;28;19937;-59
2022/04/15 03:21:38;;;;;;;;;;;21.80;40.70;;;;;;5075947;28;20296;-60
2022/04/15 03:24:04;;;;;;;;;;;21.80;40.70;;;;;;5080048;28;19909;-60
2022/04/15 03:26:30;;;;;;;;;;;21.80;40.70;;;;;;5082580;28;19920;-60
2022/04/15 03:28:56;;;;;;;;;;;21.80;40.70;;;;;;5079492;28;19916;-60
2022/04/15 03:31:21;;;;;;;;;;;21.80;40.60;;;;;;5075712;28;19913;-60
2022/04/15 03:33:46;;;;;;;;;;;21.80;40.50;;;;;;5093174;28;19943;-60
2022/04/15 03:36:12;;;;;;;;;;;21.90;40.60;;;;;;5079454;28;21930;-60
2022/04/15 03:38:37;;;;;;;;;;;21.80;40.50;;;;;;5076316;28;20736;-60
2022/04/15 03:41:03;;;;;;;;;;;21.80;40.50;;;;;;5087732;28;20384;-60
2022/04/15 03:43:29;;;;;;;;;;;21.80;40.50;;;;;;5072740;28;19930;-60
2022/04/15 03:45:55;;;;;;;;;;;21.80;40.50;;;;;;5074938;28;19913;-60
2022/04/15 03:48:20;;;;;;;;;;;21.80;40.50;;;;;;5071236;28;19913;-60
2022/04/15 03:50:46;;;;;;;;;;;21.80;40.50;;;;;;5072645;28;19970;-60
2022/04/15 03:53:11;;;;;;;;;;;21.80;40.50;;;;;;5076905;28;20399;-60
2022/04/15 03:55:36;;;;;;;;;;;21.80;40.50;;;;;;5075616;28;20403;-59
2022/04/15 03:58:02;;;;;;;;;;;21.70;40.50;;;;;;5074484;28;20335;-60
2022/04/15 04:00:27;;;;;;;;;;;21.80;40.60;;;;;;5071601;28;20049;-60
2022/04/15 04:02:53;;;;;;;;;;;21.80;40.50;;;;;;5072359;28;19923;-60
2022/04/15 04:05:19;;;;;;;;;;;21.80;40.50;;;;;;5074444;28;19922;-60
2022/04/15 04:07:44;;;;;;;;;;;21.80;40.60;;;;;;5090739;28;19919;-61
2022/04/15 04:10:13;;;;;;;;;;;21.70;40.60;;;;;;5074906;28;19916;-61
2022/04/15 04:12:38;;;;;;;;;;;21.70;40.70;;;;;;5079852;28;20454;-60
2022/04/15 04:15:04;;;;;;;;;;;21.70;40.70;;;;;;5081791;28;19912;-60
2022/04/15 04:17:30;;;;;;;;;;;21.70;40.70;;;;;;5081013;28;19986;-59
2022/04/15 04:19:55;;;;;;;;;;;21.60;40.70;;;;;;5081547;28;20452;-60
2022/04/15 04:22:21;;;;;;;;;;;21.70;40.90;;;;;;5078471;28;20414;-60
2022/04/15 04:24:46;;;;;;;;;;;21.60;40.80;;;;;;5085322;28;19962;-60
2022/04/15 04:27:12;;;;;;;;;;;21.70;41.20;;;;;;5079998;28;19923;-60
2022/04/15 04:29:37;;;;;;;;;;;21.70;40.90;;;;;;5081041;28;19908;-60
2022/04/15 04:32:03;;;;;;;;;;;21.60;40.80;;;;;;5085862;28;19916;-60
2022/04/15 04:34:28;;;;;;;;;;;21.70;40.90;;;;;;5074366;28;19916;-60
2022/04/15 04:36:54;;;;;;;;;;;21.70;40.90;;;;;;5072425;28;19920;-60
2022/04/15 04:39:19;;;;;;;;;;;21.70;40.90;;;;;;5072782;28;19963;-60
2022/04/15 04:41:45;;;;;;;;;;;21.70;41.00;;;;;;5076941;28;20383;-60
2022/04/15 04:44:10;;;;;;;;;;;21.70;41.00;;;;;;5078664;28;19970;-60
2022/04/15 04:46:36;;;;;;;;;;;21.70;40.90;;;;;;5075313;28;19917;-60
2022/04/15 04:49:01;;;;;;;;;;;21.70;41.00;;;;;;5081371;28;19912;-60
2022/04/15 04:51:27;;;;;;;;;;;21.60;40.90;;;;;;5083736;28;20329;-60
2022/04/15 04:53:52;;;;;;;;;;;21.70;41.00;;;;;;5069191;28;19919;-60
2022/04/15 04:56:18;;;;;;;;;;;21.70;41.00;;;;;;5076072;28;20003;-60
2022/04/15 04:58:43;;;;;;;;;;;21.80;40.90;;;;;;5083275;28;19920;-60
2022/04/15 05:01:08;;;;;;;;;;;21.80;40.90;;;;;;5077767;28;19965;-60
2022/04/15 05:03:34;;;;;;;;;;;21.70;40.80;;;;;;5086228;28;19911;-60
2022/04/15 05:05:59;;;;;;;;;;;21.80;40.90;;;;;;5076203;28;19917;-59
2022/04/15 05:08:25;;;;;;;;;;;21.80;40.80;;;;;;5070568;28;19920;-60
2022/04/15 05:10:50;;;;;;;;;;;21.80;40.70;;;;;;5073078;28;19962;-60
2022/04/15 05:13:16;;;;;;;;;;;21.80;41.40;;;;;;5074231;28;20352;-60
2022/04/15 05:15:41;;;;;;;;;;;21.80;40.90;;;;;;5079906;28;20415;-60
2022/04/15 05:18:06;;;;;;;;;;;21.80;40.90;;;;;;5075275;28;20009;-60
2022/04/15 05:20:32;;;;;;;;;;;21.70;41.00;;;;;;5070448;28;19912;-60
2022/04/15 05:22:58;;;;;;;;;;;21.70;41.10;;;;;;5075496;28;19940;-60
2022/04/15 05:25:23;;;;;;;;;;;21.70;41.10;;;;;;5068039;28;19916;-60
2022/04/15 05:27:49;;;;;;;;;;;21.60;41.10;;;;;;5071995;28;19912;-60
2022/04/15 05:30:15;;;;;;;;;;;21.60;41.20;;;;;;5072731;28;19912;-60
2022/04/15 05:32:40;;;;;;;;;;;21.60;41.20;;;;;;5082545;28;19918;-60
2022/04/15 05:35:07;;;;;;;;;;;21.60;41.30;;;;;;5086142;28;20377;-60
2022/04/15 05:37:32;;;;;;;;;;;21.50;41.20;;;;;;5079214;28;19916;-60
2022/04/15 05:39:57;;;;;;;;;;;21.60;41.30;;;;;;5077432;28;19912;-60
2022/04/15 05:42:26;;;;;;;;;;;21.60;41.20;;;;;;5070388;28;19916;-60
2022/04/15 05:44:51;;;;;;;;;;;21.60;41.10;;;;;;5075505;28;19940;-60
2022/04/15 05:47:17;;;;;;;;;;;21.70;41.20;;;;;;5069676;28;19913;-60
2022/04/15 05:49:42;;;;;;;;;;;21.70;41.20;;;;;;5074947;28;19999;-59
2022/04/15 05:52:08;;;;;;;;;;;21.70;41.20;;;;;;5081944;28;20307;-60
2022/04/15 05:54:33;;;;;;;;;;;21.60;41.10;;;;;;5083192;28;20085;-60
2022/04/15 05:56:58;;;;;;;;;;;21.70;41.10;;;;;;5076530;28;19942;-60
2022/04/15 05:59:24;;;;;;;;;;;21.70;41.10;;;;;;5071479;28;19912;-60
2022/04/15 06:01:51;;;;;;;;;;;21.70;41.10;;;;;;5072824;28;20011;-60
2022/04/15 06:04:17;;;;;;;;;;;21.60;41.00;;;;;;5075603;28;20360;-59
2022/04/15 06:06:43;;;;;;;;;;;21.70;41.20;;;;;;5086742;28;20011;-59
2022/04/15 06:09:08;;;;;;;;;;;21.70;41.20;;;;;;5076634;28;19964;-60
2022/04/15 06:11:34;;;;;;;;;;;21.60;41.10;;;;;;5081481;28;19920;-60
2022/04/15 06:14:04;;;;;;;;;;;21.60;41.10;;;;;;5072979;28;19962;-60
2022/04/15 06:16:32;;;;;;;;;;;21.60;41.10;;;;;;5083670;28;19923;-60
2022/04/15 06:19:00;;;;;;;;;;;21.70;41.20;;;;;;5078229;28;20019;-60
2022/04/15 06:21:26;;;;;;;;;;;21.60;41.20;;;;;;5075723;28;20430;-60
2022/04/15 06:23:51;;;;;;;;;;;21.60;41.20;;;;;;5090319;28;19912;-60
2022/04/15 06:26:16;;;;;;;;;;;21.60;41.10;;;;;;5073161;28;19922;-60
2022/04/15 06:28:42;;;;;;;;;;;21.60;41.10;;;;;;5075861;28;19999;-60
2022/04/15 06:31:07;;;;;;;;;;;21.70;41.20;;;;;;5080845;28;19927;-60
2022/04/15 06:33:33;;;;;;;;;;;21.70;41.20;;;;;;5085460;28;19916;-60
2022/04/15 06:35:59;;;;;;;;;;;21.70;41.20;;;;;;5072626;28;20312;-60
2022/04/15 06:38:24;;;;;;;;;;;21.70;41.10;;;;;;5075042;28;19936;-60
2022/04/15 06:40:50;;;;;;;;;;;21.70;41.10;;;;;;5082870;28;19912;-60
2022/04/15 06:43:15;;;;;;;;;;;21.70;41.10;;;;;;5090658;28;19916;-60
2022/04/15 06:45:41;;;;;;;;;;;21.70;41.10;;;;;;5081593;28;19912;-60
2022/04/15 06:48:06;;;;;;;;;;;21.80;41.10;;;;;;5081366;28;19915;-60
2022/04/15 06:50:32;;;;;;;;;;;21.80;41.10;;;;;;5074583;28;19915;-60
2022/04/15 06:52:57;;;;;;;;;;;21.80;41.20;;;;;;5085093;28;20368;-61
2022/04/15 06:55:23;;;;;;;;;;;21.70;41.10;;;;;;5069200;28;20283;-60
2022/04/15 06:57:48;;;;;;;;;;;21.70;41.10;;;;;;5087601;28;20261;-60
2022/04/15 07:00:14;;;;;;;;;;;21.70;41.10;;;;;;5084718;28;19985;-60
2022/04/15 07:02:41;;;;;;;;;;;21.70;41.00;;;;;;5080069;28;19912;-60
2022/04/15 07:05:09;;;;;;;;;;;21.70;41.10;;;;;;5075641;28;20265;-60
2022/04/15 07:07:35;;;;;;;;;;;21.70;41.20;;;;;;5090453;28;19920;-60
2022/04/15 07:10:00;;;;;;;;;;;21.80;41.20;;;;;;5079986;28;20279;-60
2022/04/15 07:12:25;;;;;;;;;;;21.70;41.20;;;;;;5085124;28;19916;-60
2022/04/15 07:14:51;;;;;;;;;;;21.70;41.90;;;;;;5088875;28;19912;-60
2022/04/15 07:17:16;;;;;;;;;;;21.60;41.30;;;;;;5086005;28;19924;-60
2022/04/15 07:19:42;;;;;;;;;;;21.60;41.30;;;;;;5083814;28;19909;-60
2022/04/15 07:22:07;;;;;;;;;;;21.70;41.50;;;;;;5091981;28;19919;-60
2022/04/15 07:24:33;;;;;;;;;;;21.60;41.30;;;;;;5078540;28;19944;-60
2022/04/15 07:26:59;;;;;;;;;;;21.70;41.50;;;;;;5080096;28;20439;-61
2022/04/15 07:29:26;;;;;;;;;;;21.70;41.50;;;;;;5082467;28;19927;-60
2022/04/15 07:31:53;;;;;;;;;;;21.70;41.40;;;;;;5074944;28;19908;-60
2022/04/15 07:34:19;;;;;;;;;;;21.60;41.30;;;;;;5074384;28;20387;-60
2022/04/15 07:36:48;;;;;;;;;;;21.70;41.40;;;;;;5075341;28;19921;-60
2022/04/15 07:39:17;;;;;;;;;;;21.70;41.50;;;;;;5068740;28;19951;-60
2022/04/15 07:41:42;;;;;;;;;;;21.70;41.50;;;;;;5071002;28;19913;-59
2022/04/15 07:44:08;;;;;;;;;;;21.70;41.50;;;;;;5072558;28;20000;-60
2022/04/15 07:46:34;;;;;;;;;;;21.70;41.50;;;;;;5078970;28;19912;-60
2022/04/15 07:48:59;;;;;;;;;;;21.70;41.50;;;;;;5081027;28;19934;-60
2022/04/15 07:51:25;;;;;;;;;;;21.70;41.60;;;;;;5072820;28;19913;-60
2022/04/15 07:53:50;;;;;;;;;;;21.80;41.50;;;;;;5079363;28;20273;-60
2022/04/15 07:56:16;;;;;;;;;;;22.00;41.40;;;;;;5076567;28;19912;-60
2022/04/15 07:58:41;;;;;;;;;;;22.20;41.10;;;;;;5085763;28;19915;-60
2022/04/15 08:01:07;;;;;;;;;;;22.40;40.70;;;;;;5077627;28;19912;-60
2022/04/15 08:03:33;;;;;;;;;;;22.60;40.40;;;;;;5080668;28;19994;-60
2022/04/15 08:05:58;;;;;;;;;;;22.80;40.10;;;;;;5081955;28;20054;-60
2022/04/15 08:08:24;;;;;;;;;;;22.90;40.00;;;;;;5089970;28;19912;-60
2022/04/15 08:10:51;;;;;;;;;;;23.00;39.80;;;;;;5078212;28;20420;-60
2022/04/15 08:13:16;;;;;;;;;;;23.00;39.70;;;;;;5080706;28;19908;-60
2022/04/15 08:15:42;;;;;;;;;;;23.10;39.50;;;;;;5072257;28;19959;-60
2022/04/15 08:18:07;;;;;;;;;;;23.20;39.30;;;;;;5087152;28;19927;-60
2022/04/15 08:20:33;;;;;;;;;;;23.30;39.30;;;;;;5076566;28;19955;-60
2022/04/15 08:22:58;;;;;;;;;;;23.30;39.10;;;;;;5072261;28;20422;-60
2022/04/15 08:25:24;;;;;;;;;;;23.40;39.10;;;;;;5081051;28;19912;-60
2022/04/15 08:27:49;;;;;;;;;;;23.30;39.10;;;;;;5062717;28;19943;-60
2022/04/15 08:30:14;;;;;;;;;;;23.30;39.20;;;;;;5069768;28;19924;-60
2022/04/15 08:32:40;;;;;;;;;;;23.20;39.30;;;;;;5064567;28;20407;-59
2022/04/15 08:35:06;;;;;;;;;;;23.30;39.30;;;;;;5076402;28;19912;-60
2022/04/15 08:37:33;;;;;;;;;;;23.30;39.30;;;;;;5061658;28;19921;-59
2022/04/15 08:39:58;;;;;;;;;;;23.20;39.30;;;;;;5069056;28;19912;-60
2022/04/15 08:42:24;;;;;;;;;;;23.20;39.40;;;;;;5080061;28;19916;-60
2022/04/15 08:44:50;;;;;;;;;;;23.20;39.30;;;;;;5075650;28;19920;-60
2022/04/15 08:47:15;;;;;;;;;;;23.20;39.30;;;;;;5073052;28;19917;-60
2022/04/15 08:49:41;;;;;;;;;;;23.20;39.40;;;;;;5067426;28;19921;-60
2022/04/15 08:52:07;;;;;;;;;;;23.20;39.50;;;;;;5071019;28;19913;-60
2022/04/15 08:54:33;;;;;;;;;;;23.20;39.60;;;;;;5062740;28;19938;-60
2022/04/15 08:56:58;;;;;;;;;;;23.20;39.50;;;;;;5064506;28;19921;-59
2022/04/15 08:59:24;;;;;;;;;;;23.40;39.40;;;;;;5071040;28;20491;-60
2022/04/15 09:01:50;;;;;;;;;;;23.50;39.20;;;;;;5070430;28;19912;-60
2022/04/15 09:04:16;;;;;;;;;;;23.60;38.90;;;;;;5068221;28;19916;-60
2022/04/15 09:06:42;;;;;;;;;;;23.70;38.80;;;;;;5055233;28;19908;-60
2022/04/15 09:09:11;;;;;;;;;;;23.80;38.60;;;;;;5063199;28;19913;-60
2022/04/15 09:11:37;;;;;;;;;;;23.80;38.40;;;;;;5069229;28;20353;-60
2022/04/15 09:14:03;;;;;;;;;;;23.90;38.50;;;;;;5068774;28;20013;-60
2022/04/15 09:16:30;;;;;;;;;;;23.90;38.50;;;;;;5058439;28;20379;-59
2022/04/15 09:18:55;;;;;;;;;;;23.90;38.70;;;;;;5077566;28;19953;-59
2022/04/15 09:21:22;;;;;;;;;;;24.00;38.70;;;;;;5079867;28;19919;-60
2022/04/15 09:23:48;;;;;;;;;;;24.10;38.60;;;;;;5073436;28;20396;-61
2022/04/15 09:26:14;;;;;;;;;;;24.30;38.40;;;;;;5074715;28;19916;-60
2022/04/15 09:28:39;;;;;;;;;;;24.50;38.00;;;;;;5068248;28;19923;-59
2022/04/15 09:31:05;;;;;;;;;;;24.70;37.60;;;;;;5067836;28;20303;-59
2022/04/15 09:33:31;;;;;;;;;;;25.00;37.40;;;;;;5070259;28;19928;-62
2022/04/15 09:35:56;;;;;;;;;;;25.20;37.00;;;;;;5069947;28;20265;-61
2022/04/15 09:38:38;;;;;;;;;;;25.40;36.70;;;;;;5070903;28;19923;-61
2022/04/15 09:41:11;;;;;;;;;;;25.60;36.50;;;;;;5073583;28;20338;-61
2022/04/15 09:43:46;;;;;;;;;;;25.60;36.70;;;;;;5071472;28;20387;-60
2022/04/15 09:46:11;;;;;;;;;;;25.60;36.50;;;;;;5079469;28;20602;-61
2022/04/15 09:48:37;;;;;;;;;;;25.50;36.60;;;;;;5091275;28;20022;-61
2022/04/15 09:51:02;;;;;;;;;;;25.40;36.90;;;;;;5079810;28;19912;-60
2022/04/15 09:53:28;;;;;;;;;;;25.20;37.00;;;;;;5086271;28;19916;-60
2022/04/15 09:55:53;;;;;;;;;;;25.10;37.30;;;;;;5069643;28;19960;-60
2022/04/15 09:58:20;;;;;;;;;;;25.00;37.60;;;;;;5069191;28;19916;-60
2022/04/15 10:00:51;;;;;;;;;;;24.90;38.20;;;;;;5088454;28;19995;-60
2022/04/15 10:03:17;;;;;;;;;;;24.80;37.70;;;;;;5069240;28;19928;-62
2022/04/15 10:05:43;;;;;;;;;;;24.70;37.80;;;;;;5081267;28;21630;-60
2022/04/15 10:08:09;;;;;;;;;;;24.60;38.00;;;;;;5071770;28;19920;-60
2022/04/15 10:10:34;;;;;;;;;;;24.50;38.20;;;;;;5083292;28;19924;-61
2022/04/15 10:13:00;;;;;;;;;;;24.50;38.30;;;;;;5080888;28;19915;-61
2022/04/15 10:15:26;;;;;;;;;;;24.40;38.40;;;;;;5066319;28;19913;-62
2022/04/15 10:17:51;;;;;;;;;;;24.30;38.50;;;;;;5072056;28;19939;-62
2022/04/15 10:20:17;;;;;;;;;;;24.20;38.60;;;;;;5090890;28;20049;-61
2022/04/15 10:22:42;;;;;;;;;;;24.10;38.90;;;;;;5078475;28;19917;-61
2022/04/15 10:25:08;;;;;;;;;;;24.00;39.10;;;;;;5075050;28;20541;-61
2022/04/15 10:27:33;;;;;;;;;;;24.00;39.10;;;;;;5073791;28;20320;-61
2022/04/15 10:30:18;;;;;;;;;;;23.90;39.10;;;;;;5068951;28;19918;-61
2022/04/15 10:32:54;;;;;;;;;;;23.80;39.30;;;;;;5069842;28;20276;-58
2022/04/15 10:35:41;;;;;;;;;;;23.80;40.40;;;;;;5072834;28;19913;-59
2022/04/15 10:38:10;;;;;;;;;;;23.70;39.60;;;;;;5072991;28;19963;-61
2022/04/15 10:40:36;;;;;;;;;;;23.70;39.60;;;;;;5076351;28;19920;-59
2022/04/15 10:43:20;;;;;;;;;;;23.70;39.60;;;;;;5078444;28;19916;-60
2022/04/15 10:45:45;;;;;;;;;;;23.70;39.60;;;;;;5079269;28;20003;-60
2022/04/15 10:48:11;;;;;;;;;;;23.70;39.60;;;;;;5076115;28;20023;-61
2022/04/15 10:50:38;;;;;;;;;;;23.70;39.60;;;;;;5075357;28;19935;-60
2022/04/15 10:53:17;;;;;;;;;;;23.70;39.60;;;;;;5079795;28;19943;-59
2022/04/15 10:55:44;;;;;;;;;;;23.70;39.70;;;;;;5070885;28;19999;-61
2022/04/15 10:58:13;;;;;;;;;;;23.60;39.70;;;;;;5071766;28;19920;-60
2022/04/15 11:03:22;;;;;;;;;;;23.40;40.40;;;;;;5079714;28;19919;-60
2022/04/15 11:05:49;;;;;;;;;;;23.40;40.40;;;;;;5071662;28;19920;-60
2022/04/15 11:08:22;;;;;;;;;;;23.50;40.40;;;;;;5078353;28;19935;-60
2022/04/15 11:11:07;;;;;;;;;;;23.60;40.50;;;;;;5068871;28;20299;-60
2022/04/15 11:13:44;;;;;;;;;;;23.70;40.60;;;;;;5068998;28;20283;-60
2022/04/15 11:16:10;;;;;;;;;;;23.80;40.30;;;;;;5078801;28;19925;-60
2022/04/15 11:18:51;;;;;;;;;;;24.00;40.00;;;;;;5078344;28;20011;-60
2022/04/15 11:21:18;;;;;;;;;;;24.30;39.90;;;;;;5060042;28;20291;-60
2022/04/15 11:23:47;;;;;;;;;;;24.40;39.60;;;;;;5064939;28;19912;-60
2022/04/15 11:26:13;;;;;;;;;;;24.50;39.40;;;;;;5068850;28;19924;-60
2022/04/15 11:28:39;;;;;;;;;;;24.60;39.30;;;;;;5068884;28;19921;-61
2022/04/15 11:31:17;;;;;;;;;;;24.60;39.30;;;;;;5076870;28;20359;-60
2022/04/15 11:33:43;;;;;;;;;;;24.70;39.30;;;;;;5075218;28;19952;-60
2022/04/15 11:36:08;;;;;;;;;;;24.80;39.20;;;;;;5087744;28;19966;-60
2022/04/15 11:38:34;;;;;;;;;;;24.90;39.10;;;;;;5072837;28;19916;-61
2022/04/15 11:40:59;;;;;;;;;;;24.90;39.00;;;;;;5084534;28;19951;-60
2022/04/15 11:43:24;;;;;;;;;;;24.90;38.90;;;;;;5070525;28;19920;-61
2022/04/15 11:45:50;;;;;;;;;;;24.90;39.00;;;;;;5070689;28;19963;-60
2022/04/15 11:48:22;;;;;;;;;;;24.90;39.00;;;;;;5089084;28;19958;-60
2022/04/15 11:50:48;;;;;;;;;;;24.90;39.00;;;;;;5057673;28;19916;-60
2022/04/15 11:53:14;;;;;;;;;;;24.90;39.10;;;;;;5071227;28;20377;-60
2022/04/15 11:56:06;;;;;;;;;;;24.90;39.30;;;;;;5070448;28;20018;-61
2022/04/15 11:58:31;;;;;;;;;;;24.70;39.40;;;;;;5064756;28;19916;-60
2022/04/15 12:00:57;;;;;;;;;;;24.60;39.70;;;;;;5077105;28;19912;-60
2022/04/15 12:03:23;;;;;;;;;;;24.50;40.00;;;;;;5078616;28;19920;-60
2022/04/15 12:05:49;;;;;;;;;;;24.30;40.30;;;;;;5074880;28;19920;-60
2022/04/15 12:08:15;;;;;;;;;;;24.10;40.50;;;;;;5074672;28;20023;-60
2022/04/15 12:10:41;;;;;;;;;;;24.00;40.90;;;;;;5077084;28;19916;-61
2022/04/15 12:13:06;;;;;;;;;;;24.00;41.00;;;;;;5083953;28;19908;-60
2022/04/15 12:15:32;;;;;;;;;;;23.90;41.20;;;;;;5080010;28;19912;-60
2022/04/15 12:17:58;;;;;;;;;;;23.90;41.20;;;;;;5073623;28;19931;-60
2022/04/15 12:20:24;;;;;;;;;;;23.90;41.20;;;;;;5068978;28;19917;-60
2022/04/15 12:22:49;;;;;;;;;;;23.90;41.20;;;;;;5070072;28;19919;-60
2022/04/15 12:25:15;;;;;;;;;;;24.00;41.10;;;;;;5082226;28;19923;-60
2022/04/15 12:27:44;;;;;;;;;;;24.00;41.10;;;;;;5078561;28;20122;-60
2022/04/15 12:30:14;;;;;;;;;;;24.00;41.10;;;;;;5080072;28;19953;-60
2022/04/15 12:32:40;;;;;;;;;;;24.00;41.10;;;;;;5078281;28;19962;-60
2022/04/15 12:35:08;;;;;;;;;;;24.00;41.10;;;;;;5072628;28;19908;-60
2022/04/15 12:37:35;;;;;;;;;;;24.00;41.00;;;;;;5085159;28;19921;-60
2022/04/15 12:40:01;;;;;;;;;;;24.00;41.10;;;;;;5088719;28;19915;-60
2022/04/15 12:42:27;;;;;;;;;;;24.00;41.00;;;;;;5069978;28;19921;-60
2022/04/15 12:44:53;;;;;;;;;;;24.10;41.00;;;;;;5074239;28;19932;-60
2022/04/15 12:47:18;;;;;;;;;;;24.10;41.00;;;;;;5091779;28;19912;-60
2022/04/15 12:49:46;;;;;;;;;;;24.10;41.00;;;;;;5082084;28;21298;-60
2022/04/15 12:52:17;;;;;;;;;;;24.10;41.00;;;;;;5075185;28;20003;-60
2022/04/15 12:54:55;;;;;;;;;;;24.10;40.90;;;;;;5087359;28;20352;-60
2022/04/15 12:57:21;;;;;;;;;;;24.10;40.90;;;;;;5088858;28;20604;-60
2022/04/15 12:59:47;;;;;;;;;;;24.10;40.90;;;;;;5079389;28;19914;-60
2022/04/15 13:02:13;;;;;;;;;;;24.20;40.90;;;;;;5088162;28;20000;-60
2022/04/15 13:04:38;;;;;;;;;;;24.30;40.70;;;;;;5080641;28;19994;-60
2022/04/15 13:07:04;;;;;;;;;;;24.40;40.50;;;;;;5090238;28;19946;-60
2022/04/15 13:09:30;;;;;;;;;;;24.50;40.30;;;;;;5072235;28;19912;-60
2022/04/15 13:11:55;;;;;;;;;;;24.50;40.20;;;;;;5079785;28;19908;-60
2022/04/15 13:14:21;;;;;;;;;;;24.50;40.20;;;;;;5077628;28;19916;-60
2022/04/15 13:16:46;;;;;;;;;;;24.50;40.30;;;;;;5083573;28;19971;-60
2022/04/15 13:19:12;;;;;;;;;;;24.50;40.30;;;;;;5070042;28;19951;-60
2022/04/15 13:21:37;;;;;;;;;;;24.50;40.20;;;;;;5070884;28;19908;-60
2022/04/15 13:24:03;;;;;;;;;;;24.50;40.20;;;;;;5080214;28;19916;-60
2022/04/15 13:26:28;;;;;;;;;;;24.50;40.30;;;;;;5071594;28;19916;-60
2022/04/15 13:28:54;;;;;;;;;;;24.50;40.30;;;;;;5068630;28;19913;-60
2022/04/15 13:31:20;;;;;;;;;;;24.40;40.30;;;;;;5072280;28;19927;-60
2022/04/15 13:33:45;;;;;;;;;;;24.40;40.50;;;;;;5083363;28;19913;-61
2022/04/15 13:36:11;;;;;;;;;;;24.30;40.70;;;;;;5063915;28;19920;-60
2022/04/15 13:38:36;;;;;;;;;;;24.30;40.80;;;;;;5063556;28;19921;-60
2022/04/15 13:41:02;;;;;;;;;;;24.20;41.10;;;;;;5074657;28;19920;-60
2022/04/15 13:43:28;;;;;;;;;;;24.20;41.30;;;;;;5065600;28;19927;-61
2022/04/15 13:45:54;;;;;;;;;;;24.20;41.40;;;;;;5070854;28;19920;-60
2022/04/15 13:48:20;;;;;;;;;;;24.10;41.30;;;;;;5084913;28;19955;-60
2022/04/15 13:50:45;;;;;;;;;;;24.30;41.30;;;;;;5068909;28;19913;-61
2022/04/15 13:58:39;;;;;;;;;;;24.50;40.80;;;;;;5074627;28;20392;-61
2022/04/15 14:01:04;;;;;;;;;;;24.60;40.70;;;;;;5078134;28;19912;-60
2022/04/15 14:03:32;;;;;;;;;;;24.60;40.70;;;;;;5085864;28;20032;-60
2022/04/15 14:05:57;;;;;;;;;;;24.60;40.60;;;;;;5085162;28;19912;-61
2022/04/15 14:08:23;;;;;;;;;;;24.60;40.70;;;;;;5069643;28;19985;-61
2022/04/15 14:10:48;;;;;;;;;;;24.60;40.70;;;;;;5068594;28;19923;-60
2022/04/15 14:13:15;;;;;;;;;;;24.60;40.70;;;;;;5068324;28;19917;-60
2022/04/15 14:15:40;;;;;;;;;;;24.50;40.80;;;;;;5062547;28;19912;-61
2022/04/15 14:18:08;;;;;;;;;;;24.50;40.90;;;;;;5068516;28;19922;-60
2022/04/15 14:20:34;;;;;;;;;;;24.40;41.10;;;;;;5073366;28;19923;-60